Greenville, Michigan
Current Conditions -  °F | °C
As of 2:54 AM on Wednesday 22 Oct 2014 (Local Time) from KY70 Reporting Station
Clear Clear  
Wind Chill: 28°   Ceiling: Unl
Heat Index: 33°   Visibility: 10mi
Dew Point: 31°   Wind: 6mph
Humidity: 92%   Direction: 20°NNE
Pressure: 30.27"   Gusts: NA
Location:  43.18°N, 85.25°W
Report Text: KY70 220654Z AUTO 02005KT 10SM CLR 01/00 A3027 RMK AO2 T00071004
Loading
Personal Weather Stations






























Interactive Weather Map
Tropical Storm Tracking
New forecast layout! Learn more

10-Day Weather Forecast

Advertisements
Track Severe Weather on mobile